Nearby METAR Reports

 

KSJC - San Jose, California, USA
Distance from station: NE 14km
Actualización: 17/07/2018 21:53
Parcialmente nuboso
Parcialmente nuboso
 Viento del ONO
Viento: ONO 11 km/h
Temperatura: 26°C
Rocío: 14°C
Humedad: 48%
Barómetro: 1015.2 hPa
Clouds: Parcialmente nuboso
Visibility: 16 km
Cloud details: Few Clouds 366 m
Few Clouds 3353 m
Parcialmente nuboso 4572 m
2018/07/17 19:53 KSJC 171953Z 29006KT 10SM FEW012 FEW110 SCT150 26/14 A2998 RMK AO2 SLP152 T02560139
KNUQ - Moffett Nas/Mtn, California, USA
Distance from station: N 14km
Actualización: 17/07/2018 21:56
Despejado
Despejado
 
Temperatura: 21°C
Rocío: 16°C
Humedad: 73%
Barómetro: 1015.9 hPa
Clouds: Despejado
Visibility: 16 km
2018/07/17 19:56 KNUQ 171956Z AUTO 10SM CLR 21/16 A3000 RMK AO2 SLP160 T02110156 PWINO $
 
KPAO - Palo Alto, California, USA
Distance from station: NNO 23km
Actualización: 17/07/2018 20:47
NOT Current
Few Clouds
Few Clouds
 Viento del varies
Viento: varies 11 km/h
Temperatura: 21°C
Rocío: 15°C
Humedad: 69%
Barómetro: 1016.6 hPa
Clouds: Few Clouds
Visibility: 16 km
Cloud details: Few Clouds 5486 m
2018/07/17 18:47 KPAO 171847Z VRB06KT 10SM FEW180 21/15 A3002
KRHV - San Jose/Reid, California, USA
Distance from station: ENE 19km
Actualización: 17/07/2018 21:47
Despejado
Despejado
 Viento del NNO
Viento: NNO 19 km/h
Temperatura: 27°C
Heat Index: 27°C
Rocío: 15°C
Humedad: 48%
Barómetro: 1014.6 hPa
Clouds: Despejado
Visibility: 16 km
2018/07/17 19:47 KRHV 171947Z 33010KT 10SM SKC 27/15 A2996
 
KOAK - Oakland, California, USA
Distance from station: NNO 50km
Actualización: 17/07/2018 21:53
Few Clouds
Few Clouds
 Viento del ONO
Viento: ONO 22 km/h
Temperatura: 19°C
Rocío: 13°C
Humedad: 68%
Barómetro: 1016.3 hPa
Clouds: Few Clouds
Visibility: 16 km
Cloud details: Few Clouds 305 m
Few Clouds 5486 m
2018/07/17 19:53 KOAK 171953Z 29012KT 10SM FEW010 FEW180 19/13 A3001 RMK AO2 SLP161 T01890133
KSQL - San Carlos Airpo, California, USA
Distance from station: NO 34km
Actualización: 17/07/2018 21:49
Few Clouds
Few Clouds
 Viento del N
Viento: N 17 km/h
Temperatura: 20°C
Rocío: 14°C
Humedad: 69%
Barómetro: 1016.3 hPa
Clouds: Few Clouds
Visibility: 16 km
Cloud details: Few Clouds 305 m
Few Clouds 6096 m
2018/07/17 19:49 KSQL 171949Z 35009KT 10SM FEW010 FEW200 20/14 A3001
 
KSFO - San Francisco, California, USA
Distance from station: NO 49km
Actualización: 17/07/2018 21:56
Muy nuboso
Muy nuboso
 Viento del ONO
Viento: ONO 31 km/h
Temperatura: 19°C
Rocío: 13°C
Humedad: 68%
Barómetro: 1015.9 hPa
Clouds: Muy nuboso
Visibility: 16 km
Cloud details: Few Clouds 610 m
Muy nuboso 6096 m
2018/07/17 19:56 KSFO 171956Z 30017KT 10SM FEW020 BKN200 19/13 A3000 RMK AO2 SLP158 T01940128
KE16 - San Martin, California, USA
Distance from station: ESE 43km
Actualización: 17/07/2018 22:35
Despejado
Despejado
 Viento del SE
Viento: SE 6 km/h
Temperatura: 31°C
Rocío: 12°C
Humedad: 31%
Barómetro: 1014.9 hPa
Clouds: Despejado
Visibility: 16 km
2018/07/17 20:35 KE16 172035Z AUTO 13003KT 10SM CLR 31/12 A2997 RMK AO2
 
KWVI - Watsonville, California, USA
Distance from station: SSE 44km
Actualización: 17/07/2018 21:53
Despejado
Despejado
 Viento del S
Viento: S 15 km/h
Temperatura: 19°C
Rocío: 14°C
Humedad: 73%
Barómetro: 1016.6 hPa
Clouds: Despejado
Visibility: 16 km
2018/07/17 19:53 KWVI 171953Z AUTO 19008KT 10SM CLR 19/14 A3002 RMK AO2 SLP166 T01890144
KHAF - Half Moon Bay, California, USA
Distance from station: ONO 50km
Actualización: 17/07/2018 22:40
Parcialmente nuboso
Parcialmente nuboso
 Viento del ONO
Viento: ONO 17 km/h
Temperatura: 15°C
Rocío: 13°C
Humedad: 88%
Barómetro: 1017.3 hPa
Clouds: Parcialmente nuboso
Visibility: 14 km
Cloud details: Parcialmente nuboso 183 m
2018/07/17 20:40 KHAF 172040Z AUTO 30009KT 9SM SCT006 15/13 A3004 RMK AO2
 
KHWD - Hayward, California, USA
Distance from station: N 44km
Actualización: 17/07/2018 21:54
Despejado
Despejado
 Viento del ONO
Viento: ONO 22 km/h
Temperatura: 22°C
Rocío: 14°C
Humedad: 61%
Barómetro: 1015.9 hPa
Clouds: Despejado
Visibility: 16 km
2018/07/17 19:54 KHWD 171954Z 29012KT 10SM CLR 22/14 A3000 RMK AO2 SLP168 T02220139
KLVK - Livermore, California, USA
Distance from station: NNE 51km
Actualización: 17/07/2018 21:53
Despejado
Despejado
 Viento del O
Viento: O 13 km/h
Temperatura: 30°C
Rocío: 11°C
Humedad: 31%
Barómetro: 1014.6 hPa
Clouds: Despejado
Visibility: 16 km
2018/07/17 19:53 KLVK 171953Z 28007KT 10SM CLR 30/11 A2996 RMK AO2 SLP143 T03000111